Time;durP1;ratioP1;P1;durP2;ratioP2;P2;SDS_P1;SDS_P2;PMS_P1;PMS_P2;Temp;Humidity;BMP_temperature;BMP_pressure;BME280_temperature;BME280_humidity;BME280_pressure;Samples;Min_cycle;Max_cycle;Signal;HPM_P1;HPM_P2
2022/04/22 00:00:26;;;;;;;1.48;1.38;;;21.10;53.00;;;;;;4967657;28;20075;-18
2022/04/22 00:02:51;;;;;;;1.70;1.60;;;21.10;52.90;;;;;;4957798;28;20157;-16
2022/04/22 00:05:17;;;;;;;1.60;1.50;;;21.10;52.90;;;;;;4958577;28;20098;-16
2022/04/22 00:07:43;;;;;;;3.30;1.77;;;21.10;53.10;;;;;;4957628;28;20504;-15
2022/04/22 00:10:10;;;;;;;1.80;1.70;;;21.10;53.00;;;;;;4956693;28;20046;-16
2022/04/22 00:12:36;;;;;;;4.10;1.67;;;21.10;52.80;;;;;;4957701;28;20050;-17
2022/04/22 00:15:03;;;;;;;2.55;1.65;;;21.00;53.00;;;;;;4958654;28;20130;-16
2022/04/22 00:17:28;;;;;;;2.22;2.13;;;21.10;53.10;;;;;;4958540;28;20498;-16
2022/04/22 00:19:54;;;;;;;1.65;1.52;;;21.00;53.20;;;;;;4957501;28;20416;-16
2022/04/22 00:22:19;;;;;;;1.65;1.55;;;21.00;53.30;;;;;;4957684;28;20188;-16
2022/04/22 00:24:45;;;;;;;1.50;1.40;;;21.00;53.40;;;;;;4957568;28;20062;-16
2022/04/22 00:27:10;;;;;;;1.63;1.52;;;21.00;53.30;;;;;;4957790;28;20061;-17
2022/04/22 00:29:36;;;;;;;1.38;1.30;;;21.00;53.30;;;;;;4957815;28;20047;-16
2022/04/22 00:32:02;;;;;;;1.38;1.27;;;21.00;53.30;;;;;;4957991;28;20047;-16
2022/04/22 00:34:27;;;;;;;1.52;1.42;;;20.90;53.40;;;;;;4958053;28;20043;-16
2022/04/22 00:36:54;;;;;;;1.60;1.50;;;21.00;53.40;;;;;;4957209;28;20066;-16
2022/04/22 00:39:19;;;;;;;1.60;1.50;;;20.90;53.50;;;;;;4958233;28;20051;-16
2022/04/22 00:41:45;;;;;;;1.52;1.42;;;20.90;53.50;;;;;;4966985;28;20049;-16
2022/04/22 00:44:11;;;;;;;1.60;1.30;;;20.90;53.50;;;;;;4977160;28;20035;-16
2022/04/22 00:46:36;;;;;;;1.90;1.80;;;20.90;53.40;;;;;;4976479;28;20074;-16
2022/04/22 00:49:02;;;;;;;1.40;1.30;;;20.90;53.40;;;;;;4965496;28;20098;-16
2022/04/22 00:51:27;;;;;;;1.50;1.40;;;20.90;53.40;;;;;;4957650;28;20050;-16
2022/04/22 00:53:54;;;;;;;1.60;1.50;;;20.90;53.60;;;;;;4955685;28;20066;-16
2022/04/22 00:56:19;;;;;;;1.58;1.48;;;20.90;53.50;;;;;;4958595;28;20035;-16
2022/04/22 00:58:46;;;;;;;1.40;1.30;;;20.90;53.80;;;;;;4976405;28;20126;-16
2022/04/22 01:01:12;;;;;;;1.70;1.60;;;20.90;53.60;;;;;;4972006;28;20043;-16
2022/04/22 01:03:38;;;;;;;1.85;1.75;;;20.90;53.70;;;;;;4957009;28;20514;-16
2022/04/22 01:11:35;;;;;;;2.25;1.20;;;20.90;53.70;;;;;;4956246;28;20089;-17
2022/04/22 01:14:05;;;;;;;1.55;1.45;;;20.80;53.60;;;;;;4957195;28;20043;-16
2022/04/22 01:16:30;;;;;;;1.50;1.40;;;20.90;53.80;;;;;;4957301;28;20097;-17
2022/04/22 01:18:56;;;;;;;1.35;1.25;;;20.80;53.70;;;;;;4955496;28;20128;-16
2022/04/22 01:21:22;;;;;;;1.45;1.35;;;20.90;53.80;;;;;;4957395;28;20054;-16
2022/04/22 01:23:47;;;;;;;1.67;1.30;;;20.80;53.70;;;;;;4956402;28;20063;-16
2022/04/22 01:26:13;;;;;;;1.45;1.35;;;20.80;53.70;;;;;;4957178;28;20051;-15
2022/04/22 01:28:39;;;;;;;1.45;1.35;;;20.80;53.70;;;;;;4971617;28;20180;-16
2022/04/22 01:31:05;;;;;;;1.35;1.20;;;20.80;53.80;;;;;;4957142;28;20143;-16
2022/04/22 01:33:30;;;;;;;1.60;1.50;;;20.80;53.70;;;;;;4957245;28;20456;-16
2022/04/22 01:35:56;;;;;;;1.50;1.40;;;20.80;53.70;;;;;;4971415;28;20046;-16
2022/04/22 01:38:21;;;;;;;1.17;1.17;;;20.80;53.90;;;;;;4957135;28;20039;-16
2022/04/22 01:40:47;;;;;;;1.60;1.50;;;20.80;53.90;;;;;;4959094;28;20039;-16
2022/04/22 01:43:13;;;;;;;1.42;1.33;;;20.80;53.80;;;;;;4976481;28;20496;-16
2022/04/22 01:45:39;;;;;;;1.20;1.10;;;20.80;54.00;;;;;;4963014;28;20190;-17
2022/04/22 01:48:04;;;;;;;1.25;1.25;;;20.80;54.00;;;;;;4957216;28;20050;-17
2022/04/22 01:50:30;;;;;;;1.20;1.20;;;20.80;53.90;;;;;;4957122;28;20039;-16
2022/04/22 01:52:56;;;;;;;1.20;1.20;;;20.80;53.90;;;;;;4956727;28;20047;-16
2022/04/22 01:55:22;;;;;;;2.80;1.23;;;20.80;54.60;;;;;;4956943;28;20043;-16
2022/04/22 01:57:48;;;;;;;1.38;1.27;;;20.80;54.00;;;;;;4970502;28;20415;-16
2022/04/22 02:00:13;;;;;;;1.60;1.50;;;20.70;54.00;;;;;;4971199;28;20077;-16
2022/04/22 02:02:39;;;;;;;1.48;1.38;;;20.80;54.00;;;;;;4956476;28;20054;-17
2022/04/22 02:05:06;;;;;;;1.27;1.17;;;20.70;54.00;;;;;;4956920;28;20672;-16
2022/04/22 02:07:32;;;;;;;1.90;1.75;;;20.70;54.00;;;;;;4956868;28;20042;-15
2022/04/22 02:09:57;;;;;;;1.02;1.02;;;20.70;53.90;;;;;;4956477;28;20047;-16
2022/04/22 02:12:23;;;;;;;1.70;1.60;;;20.70;54.10;;;;;;4956890;28;20054;-16
2022/04/22 02:14:48;;;;;;;2.33;1.30;;;20.70;53.90;;;;;;4956271;28;20520;-16
2022/04/22 02:17:14;;;;;;;1.70;1.60;;;20.70;54.10;;;;;;4956864;28;20046;-16
2022/04/22 02:19:40;;;;;;;1.40;1.30;;;20.70;54.10;;;;;;4956925;28;20110;-16
2022/04/22 02:22:06;;;;;;;1.50;1.40;;;20.70;54.10;;;;;;4956140;28;20055;-15
2022/04/22 02:24:32;;;;;;;1.30;1.20;;;20.70;54.10;;;;;;4956814;28;20063;-16
2022/04/22 02:29:42;;;;;;;1.95;1.50;;;20.70;54.20;;;;;;4955785;28;20046;-16
2022/04/22 02:32:08;;;;;;;1.23;1.23;;;20.70;54.20;;;;;;4958045;28;20051;-15
2022/04/22 02:34:34;;;;;;;1.15;1.15;;;20.70;54.20;;;;;;4960154;28;20110;-16
2022/04/22 02:36:59;;;;;;;1.20;1.20;;;20.70;54.30;;;;;;4959835;28;20051;-16
2022/04/22 02:39:25;;;;;;;1.40;1.30;;;20.70;54.30;;;;;;4960503;28;20035;-16
2022/04/22 02:47:19;;;;;;;1.35;1.25;;;20.70;54.30;;;;;;4940332;29;20307;-16
2022/04/22 02:49:44;;;;;;;1.23;1.17;;;20.70;54.30;;;;;;4940222;29;20197;-15
2022/04/22 02:52:11;;;;;;;1.38;0.95;;;20.70;54.30;;;;;;4952280;28;20043;-16
2022/04/22 02:54:37;;;;;;;1.60;1.50;;;20.70;54.30;;;;;;4958332;28;20544;-16
2022/04/22 02:57:02;;;;;;;1.10;1.10;;;20.70;54.30;;;;;;4967177;28;20082;-16
2022/04/22 02:59:28;;;;;;;1.33;1.10;;;20.70;54.30;;;;;;4979104;28;20047;-16
2022/04/22 03:01:54;;;;;;;1.20;1.10;;;20.70;54.30;;;;;;4973253;28;20060;-16
2022/04/22 03:04:20;;;;;;;1.17;1.08;;;20.70;54.40;;;;;;4958422;28;20088;-16
2022/04/22 03:06:46;;;;;;;1.23;1.17;;;20.70;54.30;;;;;;4958649;28;20035;-16
2022/04/22 03:09:11;;;;;;;1.10;1.10;;;20.60;54.40;;;;;;4959521;28;20456;-16
2022/04/22 03:11:37;;;;;;;1.00;1.00;;;20.70;54.40;;;;;;4958015;28;20070;-16
2022/04/22 03:14:05;;;;;;;1.30;1.30;;;20.70;54.30;;;;;;4958946;28;21476;-16
2022/04/22 03:16:32;;;;;;;1.35;1.25;;;20.60;54.50;;;;;;4959837;28;20050;-16
2022/04/22 03:18:58;;;;;;;1.50;1.40;;;20.60;54.40;;;;;;4958855;28;20050;-16
2022/04/22 03:21:24;;;;;;;1.42;1.33;;;20.60;54.40;;;;;;4958212;28;20504;-16
2022/04/22 03:23:50;;;;;;;1.95;1.48;;;20.60;54.30;;;;;;4973188;28;20533;-16
2022/04/22 03:26:16;;;;;;;1.38;1.27;;;20.60;54.40;;;;;;4958970;28;20062;-16
2022/04/22 03:28:41;;;;;;;1.60;1.50;;;20.60;54.30;;;;;;4959201;28;20047;-17
2022/04/22 03:31:07;;;;;;;1.77;1.25;;;20.60;54.40;;;;;;4958348;28;20062;-15
2022/04/22 03:33:33;;;;;;;1.15;1.08;;;20.60;54.50;;;;;;4958923;28;20050;-16
2022/04/22 03:35:58;;;;;;;1.23;1.23;;;20.60;54.40;;;;;;4958358;28;20040;-15
2022/04/22 03:38:24;;;;;;;1.08;1.08;;;20.60;54.50;;;;;;4959067;28;20035;-16
2022/04/22 03:40:51;;;;;;;1.27;1.17;;;20.60;54.50;;;;;;4961124;28;20527;-16
2022/04/22 03:43:16;;;;;;;1.35;1.27;;;20.60;54.50;;;;;;4978382;28;20050;-16
2022/04/22 03:45:42;;;;;;;1.15;1.15;;;20.60;54.40;;;;;;4978346;28;20042;-15
2022/04/22 03:48:08;;;;;;;1.40;1.30;;;20.60;54.40;;;;;;4977583;28;20194;-16
2022/04/22 03:50:36;;;;;;;1.10;1.00;;;20.60;54.40;;;;;;4959745;28;20404;-17
2022/04/22 03:53:04;;;;;;;1.23;1.23;;;20.60;54.50;;;;;;4957923;28;20097;-16
2022/04/22 03:55:30;;;;;;;1.02;1.00;;;20.60;54.40;;;;;;4958670;28;20051;-16
2022/04/22 03:58:10;;;;;;;1.05;1.00;;;20.60;54.50;;;;;;4971654;28;20051;-16
2022/04/22 04:00:49;;;;;;;1.65;1.40;;;20.60;54.50;;;;;;4977894;28;20047;-16
2022/04/22 04:03:16;;;;;;;1.20;1.20;;;20.60;54.40;;;;;;4977418;28;20042;-18
2022/04/22 04:05:50;;;;;;;0.98;0.98;;;20.50;54.30;;;;;;4962449;28;20389;-16
2022/04/22 04:08:17;;;;;;;1.40;1.30;;;20.60;54.50;;;;;;4956819;28;20062;-15
2022/04/22 04:16:11;;;;;;;;;;;20.50;54.40;;;;;;4958206;28;20053;-16
2022/04/22 04:18:38;;;;;;;2.35;1.10;;;20.60;54.40;;;;;;4958263;28;20375;-16
2022/04/22 04:23:50;;;;;;;0.95;0.90;;;20.50;54.40;;;;;;4957499;28;20053;-17
2022/04/22 04:26:15;;;;;;;1.75;1.05;;;20.60;54.50;;;;;;4958070;28;20134;-16
2022/04/22 04:28:42;;;;;;;1.15;1.10;;;20.50;54.50;;;;;;4958098;28;20134;-16
2022/04/22 04:31:08;;;;;;;0.90;0.90;;;20.50;54.60;;;;;;4957690;28;20065;-16
2022/04/22 04:33:36;;;;;;;1.00;1.00;;;20.50;54.50;;;;;;4957897;28;20039;-15
2022/04/22 04:36:02;;;;;;;1.17;1.08;;;20.50;54.50;;;;;;4976414;28;20049;-16
2022/04/22 04:38:27;;;;;;;1.20;1.05;;;20.50;54.50;;;;;;4964847;28;20560;-16
2022/04/22 04:40:53;;;;;;;1.08;0.98;;;20.50;54.40;;;;;;4972535;28;20038;-15
2022/04/22 04:43:20;;;;;;;1.10;1.10;;;20.50;54.50;;;;;;4975763;28;20043;-16
2022/04/22 04:45:46;;;;;;;1.00;1.00;;;20.50;54.50;;;;;;4974273;28;20038;-16
2022/04/22 04:48:12;;;;;;;1.10;1.10;;;20.50;54.50;;;;;;4974593;28;20057;-17
2022/04/22 04:50:40;;;;;;;1.27;1.15;;;20.50;54.40;;;;;;4974292;28;20038;-16
2022/04/22 04:53:06;;;;;;;1.02;0.95;;;20.50;54.50;;;;;;4976063;28;20043;-16
2022/04/22 04:55:32;;;;;;;0.90;0.90;;;20.50;54.50;;;;;;4965446;28;20054;-16
2022/04/22 04:57:57;;;;;;;1.00;1.00;;;20.50;54.60;;;;;;4972443;28;20047;-16
2022/04/22 05:00:23;;;;;;;0.95;0.95;;;20.50;54.60;;;;;;4976953;28;20062;-16
2022/04/22 05:02:49;;;;;;;2.42;1.00;;;20.50;54.60;;;;;;4970690;28;20126;-16
2022/04/22 05:05:14;;;;;;;1.10;1.10;;;20.50;54.70;;;;;;4956790;28;20512;-16
2022/04/22 05:07:57;;;;;;;0.90;0.90;;;20.50;54.60;;;;;;4968461;28;20046;-16
2022/04/22 05:10:24;;;;;;;1.10;1.00;;;20.50;54.60;;;;;;4956922;28;20094;-16
2022/04/22 05:12:50;;;;;;;1.13;1.10;;;20.50;54.60;;;;;;4967704;28;20043;-18
2022/04/22 05:15:17;;;;;;;0.95;0.95;;;20.50;54.70;;;;;;4976221;28;20508;-16
2022/04/22 05:17:42;;;;;;;1.00;1.00;;;20.40;54.60;;;;;;4973927;28;20469;-16
2022/04/22 05:20:09;;;;;;;1.00;1.00;;;20.50;54.60;;;;;;4975682;28;20082;-16
2022/04/22 05:22:35;;;;;;;1.00;1.00;;;20.40;54.60;;;;;;4974890;28;20058;-16
2022/04/22 05:25:01;;;;;;;0.77;0.77;;;20.40;54.60;;;;;;4971626;28;20046;-16
2022/04/22 05:27:26;;;;;;;0.80;0.80;;;20.50;54.70;;;;;;4974088;28;20057;-15
2022/04/22 05:32:39;;;;;;;1.38;1.00;;;20.40;54.70;;;;;;4975137;28;20053;-16
2022/04/22 05:35:08;;;;;;;0.80;0.80;;;20.40;54.80;;;;;;4970783;28;20051;-16
2022/04/22 05:37:50;;;;;;;0.98;0.98;;;20.40;54.70;;;;;;4971756;28;20059;-16
2022/04/22 05:40:17;;;;;;;0.90;0.88;;;20.40;54.70;;;;;;4973051;28;20046;-16
2022/04/22 05:42:44;;;;;;;0.70;0.70;;;20.40;54.70;;;;;;4974028;28;20047;-16
2022/04/22 05:45:10;;;;;;;0.90;0.90;;;20.40;54.90;;;;;;4995047;28;20400;-16
2022/04/22 05:47:36;;;;;;;1.05;1.00;;;20.40;54.50;;;;;;4974739;28;20078;-16
2022/04/22 05:50:02;;;;;;;0.77;0.77;;;20.40;55.40;;;;;;4974172;28;20054;-18
2022/04/22 05:52:28;;;;;;;1.25;1.00;;;20.40;55.20;;;;;;4975708;28;20062;-16
2022/04/22 05:54:58;;;;;;;1.42;1.20;;;20.40;55.50;;;;;;4974622;28;20055;-16
2022/04/22 05:57:23;;;;;;;0.80;0.80;;;20.40;55.40;;;;;;4975604;28;20082;-16
2022/04/22 05:59:49;;;;;;;0.80;0.80;;;20.40;56.30;;;;;;4976322;28;20148;-16
2022/04/22 06:02:17;;;;;;;1.27;0.90;;;20.40;55.50;;;;;;4973758;28;20078;-16
2022/04/22 06:04:43;;;;;;;0.80;0.80;;;20.40;55.50;;;;;;4974310;28;20051;-16
2022/04/22 06:07:09;;;;;;;1.15;0.90;;;20.30;55.80;;;;;;4977261;28;20043;-16
2022/04/22 06:12:18;;;;;;;1.30;1.20;;;20.20;55.40;;;;;;4972085;28;20121;-16
2022/04/22 06:14:46;;;;;;;5.94;2.26;;;20.10;55.40;;;;;;4625377;28;10000954;-16
2022/04/22 06:17:12;;;;;;;3.65;3.10;;;20.20;54.10;;;;;;4967090;28;20078;-15
2022/04/22 06:19:38;;;;;;;3.03;2.83;;;20.00;52.00;;;;;;4970746;28;20047;-16
2022/04/22 06:22:04;;;;;;;3.50;3.30;;;19.80;51.60;;;;;;4966690;28;20047;-16
2022/04/22 06:24:29;;;;;;;3.42;3.22;;;19.70;51.90;;;;;;4967507;28;20069;-16
2022/04/22 06:26:55;;;;;;;3.85;3.55;;;19.60;51.60;;;;;;4958143;28;20047;-17
2022/04/22 06:29:21;;;;;;;5.18;4.05;;;19.50;51.60;;;;;;4958676;28;20043;-16
2022/04/22 06:31:47;;;;;;;3.42;3.13;;;19.50;51.60;;;;;;4968486;28;20439;-16
2022/04/22 06:34:13;;;;;;;3.47;3.28;;;19.50;51.50;;;;;;4973855;28;20123;-15
2022/04/22 06:36:39;;;;;;;3.00;2.75;;;19.50;51.70;;;;;;4972384;28;20574;-17
2022/04/22 06:39:05;;;;;;;3.80;2.50;;;19.50;52.00;;;;;;4971250;28;20123;-16
2022/04/22 06:46:59;;;;;;;4.10;2.35;;;19.60;51.90;;;;;;4974448;28;19941;-15
2022/04/22 06:49:25;;;;;;;3.55;2.25;;;19.60;52.20;;;;;;4971517;28;20042;-16
2022/04/22 06:51:51;;;;;;;4.93;2.65;;;19.60;52.10;;;;;;4978701;28;20709;-15
2022/04/22 06:54:17;;;;;;;2.25;2.15;;;19.50;52.10;;;;;;5004944;28;20088;-16
2022/04/22 06:56:44;;;;;;;2.53;2.33;;;19.60;52.40;;;;;;4965230;28;20043;-15
2022/04/22 06:59:09;;;;;;;2.25;2.15;;;19.60;52.20;;;;;;4977152;28;20134;-15
2022/04/22 07:01:36;;;;;;;5.78;2.17;;;19.60;52.10;;;;;;4977477;28;20066;-15
2022/04/22 07:04:02;;;;;;;2.38;2.17;;;19.70;52.00;;;;;;4978242;28;20567;-15
2022/04/22 07:06:27;;;;;;;4.53;2.17;;;19.70;51.80;;;;;;4978028;28;20485;-15
2022/04/22 07:08:53;;;;;;;2.10;1.70;;;19.80;51.70;;;;;;4978476;28;20039;-15
2022/04/22 07:11:26;;;;;;;4.30;2.20;;;20.00;51.40;;;;;;4978001;28;20108;-16
2022/04/22 07:13:55;;;;;;;3.72;1.75;;;20.20;51.00;;;;;;4978853;28;20066;-15
2022/04/22 07:16:21;;;;;;;1.75;1.65;;;22.40;48.40;;;;;;4974958;28;20046;-17
2022/04/22 07:18:47;;;;;;;2.20;1.83;;;24.60;42.60;;;;;;4959972;28;20049;-18
2022/04/22 07:21:13;;;;;;;2.65;1.70;;;24.40;42.40;;;;;;4963233;28;20054;-18
2022/04/22 07:23:39;;;;;;;2.33;1.77;;;22.60;45.30;;;;;;4965359;28;20535;-17
2022/04/22 07:26:07;;;;;;;2.38;1.70;;;21.50;47.80;;;;;;4962402;28;20737;-17
2022/04/22 07:28:33;;;;;;;1.98;1.73;;;20.90;49.10;;;;;;4963745;28;20043;-17
2022/04/22 07:30:59;;;;;;;3.55;1.60;;;20.60;50.10;;;;;;4962459;28;21483;-18
2022/04/22 07:33:26;;;;;;;1.58;1.48;;;20.40;50.60;;;;;;4963896;28;20062;-18
2022/04/22 07:35:52;;;;;;;2.53;2.13;;;20.30;50.90;;;;;;4962093;28;20146;-18
2022/04/22 07:38:18;;;;;;;3.28;1.60;;;20.30;51.20;;;;;;4962312;28;20105;-17
2022/04/22 07:40:48;;;;;;;2.22;2.03;;;20.40;51.00;;;;;;4963289;28;20806;-17
2022/04/22 07:48:42;;;;;;;2.05;1.80;;;20.30;50.90;;;;;;4961272;28;20062;-17
2022/04/22 07:51:08;;;;;;;3.35;1.85;;;20.10;51.50;;;;;;4962694;28;20050;-16
2022/04/22 07:53:35;;;;;;;1.60;1.40;;;20.10;51.60;;;;;;4961627;28;20139;-16
2022/04/22 07:56:05;;;;;;;2.10;1.83;;;20.00;51.70;;;;;;4960685;28;20051;-18
2022/04/22 07:58:33;;;;;;;1.80;1.70;;;20.00;51.80;;;;;;4962959;28;20098;-16
2022/04/22 08:00:59;;;;;;;1.67;1.58;;;20.00;51.90;;;;;;4963626;28;20062;-16
2022/04/22 08:03:24;;;;;;;1.52;1.42;;;20.00;51.90;;;;;;4962182;28;20059;-17
2022/04/22 08:05:50;;;;;;;2.22;1.40;;;20.00;52.10;;;;;;4961183;28;20778;-16
2022/04/22 08:08:16;;;;;;;1.58;1.48;;;20.10;51.90;;;;;;4966079;28;20113;-17
2022/04/22 08:10:42;;;;;;;1.77;1.52;;;20.20;51.80;;;;;;4977615;28;20094;-16
2022/04/22 08:13:07;;;;;;;3.13;1.50;;;20.10;51.90;;;;;;4618532;28;9999653;-15
2022/04/22 08:15:34;;;;;;;2.05;1.35;;;20.00;52.20;;;;;;4964394;28;20127;-15
2022/04/22 08:18:00;;;;;;;1.95;1.50;;;20.00;52.30;;;;;;4969971;28;20035;-16
2022/04/22 08:20:26;;;;;;;2.05;1.20;;;20.00;52.10;;;;;;4972666;28;20055;-15
2022/04/22 08:22:51;;;;;;;1.60;1.50;;;20.10;52.10;;;;;;4972776;28;20051;-16
2022/04/22 08:25:17;;;;;;;1.42;1.33;;;20.00;52.10;;;;;;4972553;28;20051;-15
2022/04/22 08:27:45;;;;;;;1.67;1.42;;;20.00;52.10;;;;;;4961037;28;20523;-15
2022/04/22 08:30:11;;;;;;;2.08;1.98;;;20.10;52.20;;;;;;4964060;28;20420;-16
2022/04/22 08:32:37;;;;;;;1.83;1.30;;;20.10;52.20;;;;;;4975315;28;20399;-15
2022/04/22 08:35:04;;;;;;;1.40;1.30;;;20.10;52.20;;;;;;4973560;28;20134;-17
2022/04/22 08:37:29;;;;;;;2.05;1.40;;;20.10;52.10;;;;;;4957620;28;20057;-15
2022/04/22 08:39:57;;;;;;;2.38;1.20;;;20.20;51.90;;;;;;4973422;28;20042;-15
2022/04/22 08:42:24;;;;;;;2.08;1.40;;;20.20;51.80;;;;;;4973922;28;20515;-15
2022/04/22 08:44:53;;;;;;;1.10;1.00;;;20.30;51.90;;;;;;4964342;28;20050;-15
2022/04/22 08:50:09;;;;;;;1.20;1.10;;;20.40;51.70;;;;;;4960358;28;20543;-17
2022/04/22 08:52:35;;;;;;;1.55;1.20;;;20.50;51.40;;;;;;4964399;28;20133;-16
2022/04/22 08:55:03;;;;;;;1.33;1.23;;;20.50;51.40;;;;;;4960156;28;20065;-15
2022/04/22 08:57:28;;;;;;;2.30;1.00;;;20.60;51.60;;;;;;4973091;28;20035;-15
2022/04/22 09:00:01;;;;;;;1.83;1.20;;;20.60;51.70;;;;;;4971333;28;20061;-16
2022/04/22 09:02:27;;;;;;;1.35;1.25;;;20.50;51.70;;;;;;4966444;28;20049;-18
2022/04/22 09:04:52;;;;;;;1.33;1.33;;;20.50;51.80;;;;;;4959604;28;20050;-17
2022/04/22 09:07:19;;;;;;;1.50;1.40;;;20.50;51.60;;;;;;4971174;28;20683;-19
2022/04/22 09:09:49;;;;;;;1.98;1.45;;;20.50;51.60;;;;;;4967620;28;20057;-17
2022/04/22 09:12:17;;;;;;;1.50;1.40;;;20.50;51.30;;;;;;4958390;28;20069;-18
2022/04/22 09:14:44;;;;;;;1.52;1.42;;;20.50;51.20;;;;;;4967139;28;20063;-17
2022/04/22 09:17:17;;;;;;;1.52;1.42;;;20.60;51.20;;;;;;4974716;28;20039;-17
2022/04/22 09:19:44;;;;;;;5.38;1.45;;;20.50;51.80;;;;;;4968539;28;20045;-16
2022/04/22 09:22:10;;;;;;;1.60;1.50;;;20.50;51.90;;;;;;4973617;28;20579;-16
2022/04/22 09:25:08;;;;;;;2.08;1.90;;;20.50;51.90;;;;;;4968438;28;20457;-17
2022/04/22 09:27:38;;;;;;;1.60;1.50;;;20.60;51.60;;;;;;4967842;28;20042;-18
2022/04/22 09:30:09;;;;;;;1.70;1.40;;;20.60;51.70;;;;;;4972234;28;20066;-18
2022/04/22 09:32:38;;;;;;;2.63;1.67;;;20.70;51.70;;;;;;4971525;28;20583;-16
2022/04/22 09:35:07;;;;;;;1.38;1.20;;;20.60;51.70;;;;;;4973316;28;20050;-17
2022/04/22 09:43:01;;;;;;;1.88;1.08;;;20.70;51.50;;;;;;4976470;28;19970;-19
2022/04/22 09:45:39;;;;;;;1.00;1.00;;;20.80;51.50;;;;;;4976604;28;20043;-17
2022/04/22 09:48:17;;;;;;;1.20;1.10;;;20.80;51.20;;;;;;4977795;28;20381;-16
2022/04/22 09:50:51;;;;;;;1.00;0.90;;;20.80;51.30;;;;;;4971584;28;20039;-19
2022/04/22 09:53:16;;;;;;;0.93;0.90;;;20.90;51.30;;;;;;4973837;28;20460;-16
2022/04/22 09:55:47;;;;;;;0.90;0.90;;;21.00;51.50;;;;;;4973939;28;20133;-16
2022/04/22 09:58:12;;;;;;;1.80;1.30;;;21.00;51.40;;;;;;4974828;28;20515;-16
2022/04/22 10:00:38;;;;;;;1.20;1.10;;;20.90;51.20;;;;;;4974300;28;20631;-16
2022/04/22 10:03:04;;;;;;;1.73;1.27;;;21.00;51.30;;;;;;4975731;28;20097;-15
2022/04/22 10:05:33;;;;;;;1.30;1.20;;;21.00;51.30;;;;;;4974872;28;20531;-17
2022/04/22 10:08:01;;;;;;;1.40;1.27;;;21.00;51.40;;;;;;4975767;28;20049;-16
2022/04/22 10:10:38;;;;;;;1.65;0.80;;;21.10;51.40;;;;;;4975961;28;20081;-17
2022/04/22 10:13:04;;;;;;;1.05;1.05;;;21.10;51.40;;;;;;4975175;28;20515;-17
2022/04/22 10:15:31;;;;;;;0.70;0.70;;;21.10;51.40;;;;;;4973629;28;20385;-17
2022/04/22 10:17:57;;;;;;;1.05;0.90;;;21.10;51.50;;;;;;4998675;28;20090;-17
2022/04/22 10:20:25;;;;;;;1.02;0.98;;;21.20;51.50;;;;;;4974722;28;20054;-17
2022/04/22 10:22:51;;;;;;;1.13;1.00;;;21.20;51.60;;;;;;4974449;28;20058;-17
2022/04/22 10:25:16;;;;;;;0.93;0.93;;;21.20;51.60;;;;;;4973178;28;20039;-17
2022/04/22 10:27:42;;;;;;;0.90;0.90;;;21.20;51.60;;;;;;4971696;28;20047;-16
2022/04/22 10:30:09;;;;;;;0.63;0.63;;;21.20;51.70;;;;;;4955810;28;20047;-17
2022/04/22 10:32:35;;;;;;;0.98;0.98;;;21.20;51.70;;;;;;4970465;28;20452;-16
2022/04/22 10:35:03;;;;;;;0.82;0.82;;;21.30;51.80;;;;;;4972024;28;20456;-16
2022/04/22 10:37:28;;;;;;;1.30;0.70;;;21.20;51.80;;;;;;4972832;28;20056;-16
2022/04/22 10:39:56;;;;;;;0.88;0.70;;;21.20;51.80;;;;;;4973337;28;20034;-17
2022/04/22 10:42:34;;;;;;;1.23;0.70;;;21.30;51.90;;;;;;4971055;28;20046;-17
2022/04/22 10:47:48;;;;;;;0.90;0.90;;;21.30;51.90;;;;;;4971467;28;20061;-16
2022/04/22 10:50:31;;;;;;;2.22;0.88;;;21.30;51.90;;;;;;4969370;28;20038;-16
2022/04/22 10:53:09;;;;;;;0.93;0.80;;;21.30;52.00;;;;;;4971755;28;20050;-19
2022/04/22 10:55:36;;;;;;;1.33;1.15;;;21.40;52.10;;;;;;4972189;28;20058;-17
2022/04/22 10:58:19;;;;;;;0.73;0.68;;;21.40;52.10;;;;;;4973131;28;20162;-17
2022/04/22 11:00:57;;;;;;;0.80;0.80;;;21.30;52.10;;;;;;4971470;28;20052;-16
2022/04/22 11:03:23;;;;;;;0.77;0.60;;;21.40;52.20;;;;;;4971832;28;20459;-16
2022/04/22 11:05:54;;;;;;;0.82;0.80;;;21.40;52.10;;;;;;4971861;28;20050;-16
2022/04/22 11:08:29;;;;;;;1.50;0.80;;;21.40;52.10;;;;;;4973530;28;20574;-17
2022/04/22 11:10:54;;;;;;;0.52;0.52;;;21.40;52.20;;;;;;4972486;28;20101;-16
2022/04/22 11:13:35;;;;;;;0.73;0.60;;;21.40;52.20;;;;;;4965390;28;20051;-16
2022/04/22 11:16:19;;;;;;;1.02;0.82;;;21.50;52.30;;;;;;4963071;28;20051;-16
2022/04/22 11:18:45;;;;;;;;;;;21.50;52.30;;;;;;4986146;28;20508;-16
2022/04/22 11:21:14;;;;;;;0.70;0.70;;;21.50;52.20;;;;;;4970856;28;19977;-17
2022/04/22 11:23:44;;;;;;;0.80;0.80;;;21.50;52.20;;;;;;4970944;28;20071;-16
2022/04/22 11:26:12;;;;;;;0.88;0.80;;;21.50;52.20;;;;;;4974232;28;20062;-16
2022/04/22 11:28:38;;;;;;;0.82;0.60;;;21.50;52.30;;;;;;4955190;28;20051;-15
2022/04/22 11:31:06;;;;;;;0.70;0.70;;;21.50;52.20;;;;;;4973312;28;20654;-16
2022/04/22 11:33:57;;;;;;;0.55;0.55;;;21.50;52.20;;;;;;4954551;28;20066;-16
2022/04/22 11:36:24;;;;;;;0.60;0.60;;;21.50;52.20;;;;;;4963916;28;20046;-15
2022/04/22 11:38:51;;;;;;;0.90;0.52;;;21.60;52.20;;;;;;4977552;28;20038;-15
2022/04/22 11:41:16;;;;;;;0.70;0.70;;;21.60;52.20;;;;;;4976075;28;20411;-15
2022/04/22 11:43:43;;;;;;;0.57;0.57;;;21.50;52.10;;;;;;4958567;28;20078;-16
2022/04/22 11:46:09;;;;;;;1.30;0.50;;;21.60;52.20;;;;;;4962912;28;20047;-15
2022/04/22 11:48:35;;;;;;;1.85;0.70;;;21.60;52.10;;;;;;4963392;28;20047;-15
2022/04/22 11:51:01;;;;;;;1.85;0.60;;;21.50;52.10;;;;;;4988876;28;20047;-16
2022/04/22 11:53:29;;;;;;;1.25;0.50;;;21.60;52.20;;;;;;4972556;28;20085;-15
2022/04/22 11:55:54;;;;;;;1.00;0.60;;;21.60;52.10;;;;;;4961965;28;20093;-15
2022/04/22 11:58:20;;;;;;;0.45;0.45;;;21.60;52.10;;;;;;4973733;28;20043;-16
2022/04/22 12:06:18;;;;;;;0.60;0.50;;;21.60;51.90;;;;;;4960079;28;19932;-18
2022/04/22 12:08:53;;;;;;;0.52;0.50;;;21.60;51.80;;;;;;4964686;28;20055;-16
2022/04/22 12:11:19;;;;;;;0.60;0.60;;;21.60;51.80;;;;;;4968357;28;20046;-17
2022/04/22 12:13:47;;;;;;;0.80;0.63;;;21.60;51.60;;;;;;4971376;28;20058;-16
2022/04/22 12:16:17;;;;;;;2.15;0.65;;;21.60;51.60;;;;;;4971395;28;20046;-16
2022/04/22 12:18:42;;;;;;;0.82;0.70;;;21.60;51.50;;;;;;4969535;28;20134;-16
2022/04/22 12:21:11;;;;;;;0.55;0.55;;;21.70;51.60;;;;;;4974177;28;20073;-15
2022/04/22 12:23:40;;;;;;;0.43;0.40;;;21.60;51.40;;;;;;4965360;28;20767;-16
2022/04/22 12:26:13;;;;;;;0.60;0.50;;;21.70;51.60;;;;;;4971942;28;20039;-15
2022/04/22 12:28:54;;;;;;;0.73;0.60;;;21.70;51.40;;;;;;4964241;28;20562;-15
2022/04/22 12:31:23;;;;;;;0.63;0.63;;;21.60;51.40;;;;;;4956558;28;20046;-15
2022/04/22 12:34:03;;;;;;;0.88;0.88;;;21.60;51.30;;;;;;4967067;28;20399;-15
2022/04/22 12:36:30;;;;;;;2.08;0.63;;;21.70;51.20;;;;;;4973157;28;20081;-15
2022/04/22 12:38:55;;;;;;;0.55;0.55;;;21.70;51.20;;;;;;4969937;28;20051;-15
2022/04/22 12:41:25;;;;;;;0.73;0.70;;;21.70;51.10;;;;;;4971213;28;20039;-16
2022/04/22 12:43:54;;;;;;;0.73;0.50;;;21.70;51.10;;;;;;4971920;28;20051;-15
2022/04/22 12:52:17;;;;;;;0.57;0.35;;;21.80;51.10;;;;;;4973264;28;20101;-15
2022/04/22 12:54:46;;;;;;;0.52;0.52;;;21.70;51.00;;;;;;4959292;28;20046;-16
2022/04/22 12:57:16;;;;;;;0.50;0.50;;;21.80;51.20;;;;;;4973358;28;20054;-15
2022/04/22 12:59:46;;;;;;;0.80;0.60;;;21.80;51.20;;;;;;4971803;28;20038;-15
2022/04/22 13:02:14;;;;;;;0.70;0.70;;;21.80;51.10;;;;;;4959796;28;20448;-15
2022/04/22 13:04:50;;;;;;;0.50;0.50;;;21.80;51.20;;;;;;4971270;28;20054;-16
2022/04/22 13:07:16;;;;;;;0.47;0.47;;;21.80;51.20;;;;;;4959578;28;20097;-16
2022/04/22 13:09:42;;;;;;;1.08;0.45;;;21.90;51.10;;;;;;4962448;28;20050;-16
2022/04/22 13:12:08;;;;;;;0.50;0.50;;;21.90;51.20;;;;;;4963020;28;20061;-16
2022/04/22 13:14:33;;;;;;;0.52;0.50;;;21.90;51.20;;;;;;4962566;28;20066;-16
2022/04/22 13:16:59;;;;;;;0.93;0.40;;;21.90;51.20;;;;;;4969952;28;20083;-15
2022/04/22 13:19:25;;;;;;;1.33;0.40;;;21.90;51.20;;;;;;4962288;28;20063;-17
2022/04/22 13:21:50;;;;;;;0.90;0.60;;;21.90;51.30;;;;;;4957887;28;20512;-15
2022/04/22 13:24:16;;;;;;;0.60;0.60;;;21.90;51.20;;;;;;4973078;28;20070;-15
2022/04/22 13:26:42;;;;;;;0.57;0.50;;;21.90;51.30;;;;;;4967904;28;20074;-15
2022/04/22 13:29:07;;;;;;;0.50;0.50;;;21.90;51.30;;;;;;4964514;28;20098;-15
2022/04/22 13:31:35;;;;;;;0.60;0.60;;;21.90;51.40;;;;;;4957332;28;20054;-18
2022/04/22 13:34:03;;;;;;;0.70;0.40;;;21.90;51.50;;;;;;4957660;28;20050;-19
2022/04/22 13:36:32;;;;;;;0.60;0.52;;;21.90;51.30;;;;;;4956257;28;20053;-18
2022/04/22 13:38:57;;;;;;;0.45;0.45;;;21.90;51.20;;;;;;4956810;28;20097;-18
2022/04/22 13:41:23;;;;;;;0.52;0.50;;;21.90;51.30;;;;;;4957309;28;20047;-18
2022/04/22 13:43:49;;;;;;;0.55;0.55;;;21.90;51.30;;;;;;4957827;28;20109;-18
2022/04/22 13:54:27;;;;;;;;;;;22.00;51.30;;;;;;4957170;28;20105;-16
2022/04/22 13:56:53;;;;;;;0.40;0.30;;;22.00;51.30;;;;;;4960256;28;19930;-17